Valle Azzurra — ICEG — position and weather

sailwx.info

Track history (hours):
 
Tides and Currents Weather Stations Pressure Air Temp Water Temp Dewpoint Dewpoint Depression Visibility Wind Speed Wind Dir Waves Ship Positions

Valle Azzurra

Last reported at 2015-Apr-29 15:04 UTC. Time now 2015-Jul-04 19:05 UTC.
Position N 26°12' W 079°15'.
Warning: this ship's position is months out of date.

Length 183 m; draft 11.6 m.

Type: Tanker. MMSI: 247226600.

Date/timePositionNaut miles runAvg speedWind from/ knotsBaromVisibWave heightAir tempDewpointWater temp
2015-Apr-29 15:04N 26°12' W 079°15'713.9
2015-Apr-29 14:33N 26°07' W 079°20'1414.0
2015-Apr-29 13:33N 25°56' W 079°30'1414.1
2015-Apr-29 12:33N 25°42' W 079°33'  
2015-Apr-26 10:29N 28°48' W 094°26'3411.5
2015-Apr-26 07:34N 29°20' W 094°40'1211.3
2015-Apr-26 06:32N 29°26' W 094°50'1111.0
2015-Apr-26 05:33N 29°36' W 094°57'9 8.9
2015-Apr-26 04:33N 29°44' W 095°01'6 5.6
2015-Apr-26 03:33N 29°44' W 095°08'0 0.2
2015-Apr-26 02:33N 29°44' W 095°08'0 0.0
2015-Apr-26 01:33N 29°44' W 095°08'0 0.0
2015-Apr-26 00:33N 29°44' W 095°08'0 0.0
2015-Apr-25 23:33N 29°44' W 095°08'0 0.0
2015-Apr-25 22:33N 29°44' W 095°08'0 0.0
2015-Apr-25 21:33N 29°44' W 095°08'0 0.0
2015-Apr-25 20:33N 29°44' W 095°08'0 0.0
2015-Apr-25 19:33N 29°44' W 095°08'0 0.0
2015-Apr-25 18:33N 29°44' W 095°08'0 0.0
2015-Apr-25 17:33N 29°44' W 095°08'0 0.0
2015-Apr-25 16:33N 29°44' W 095°08'0 0.0
2015-Apr-25 15:33N 29°44' W 095°08'0 0.0
2015-Apr-25 14:33N 29°44' W 095°08'0 0.0
2015-Apr-25 13:33N 29°44' W 095°08'0 0.0
2015-Apr-25 12:30N 29°44' W 095°08'0 0.0
2015-Apr-25 11:33N 29°44' W 095°08'0 0.0
2015-Apr-25 10:33N 29°44' W 095°08'0 0.0
2015-Apr-25 09:33N 29°44' W 095°08'0 0.0
2015-Apr-25 08:33N 29°44' W 095°08'0 0.0
2015-Apr-25 07:33N 29°44' W 095°08'0 0.0
2015-Apr-25 06:33N 29°44' W 095°08'0 0.0
2015-Apr-25 05:30N 29°44' W 095°08'0 0.0
2015-Apr-25 04:33N 29°44' W 095°08'0 0.0
2015-Apr-25 03:33N 29°44' W 095°08'0 0.0
2015-Apr-25 02:33N 29°44' W 095°08'0 0.0
2015-Apr-25 01:33N 29°44' W 095°08'0 0.0
2015-Apr-25 00:33N 29°44' W 095°08'0 0.0
2015-Apr-24 23:33N 29°44' W 095°08'0 0.0
2015-Apr-24 22:33N 29°44' W 095°08'0 0.0
2015-Apr-24 21:33N 29°44' W 095°08'0 0.0
2015-Apr-24 20:30N 29°44' W 095°08'0 0.0
2015-Apr-24 19:33N 29°44' W 095°08'0 0.0
2015-Apr-24 18:33N 29°44' W 095°08'0 0.0
2015-Apr-24 17:33N 29°44' W 095°08'0 0.0
2015-Apr-24 16:33N 29°44' W 095°08'0 0.0
2015-Apr-24 15:33N 29°44' W 095°08'0 0.0
2015-Apr-24 14:33N 29°44' W 095°08'0 0.0
2015-Apr-24 13:30N 29°44' W 095°08'0 0.0
2015-Apr-24 12:27N 29°44' W 095°08'0 0.0
2015-Apr-24 11:33N 29°44' W 095°08'0 0.0
2015-Apr-24 10:33N 29°44' W 095°08'0 0.0
2015-Apr-24 09:30N 29°44' W 095°08'0 0.0
2015-Apr-24 08:30N 29°44' W 095°08'0 0.0
2015-Apr-24 07:33N 29°44' W 095°08'0 0.0
2015-Apr-24 06:33N 29°44' W 095°08'0 0.0
2015-Apr-24 05:33N 29°44' W 095°08'0 0.0
2015-Apr-24 04:33N 29°44' W 095°08'0 0.0
2015-Apr-24 03:30N 29°44' W 095°08'0 0.0
2015-Apr-24 02:33N 29°44' W 095°08'0 0.0
2015-Apr-24 01:33N 29°44' W 095°08'1 0.7
2015-Apr-24 00:33N 29°44' W 095°07'5 5.4
2015-Apr-23 23:33N 29°43' W 095°01'1010.1
2015-Apr-23 22:33N 29°34' W 094°55'1211.8
2015-Apr-23 21:33N 29°24' W 094°49'15 1.8
2015-Apr-23 13:31N 29°12' W 094°38'0 0.0
2015-Apr-23 12:25N 29°12' W 094°38'0 0.0
2015-Apr-23 11:31N 29°12' W 094°38'0 0.0
2015-Apr-23 10:28N 29°12' W 094°38'0 0.0
2015-Apr-22 14:25N 29°12' W 094°38'0 0.0
2015-Apr-22 13:22N 29°12' W 094°38'0 0.0
2015-Apr-22 12:31N 29°12' W 094°38'  
2015-Apr-20 08:13N 29°12' W 094°38'0 0.0
2015-Apr-20 07:25N 29°12' W 094°38'0 0.0
2015-Apr-20 06:14N 29°12' W 094°38'0 0.0
2015-Apr-20 05:28N 29°12' W 094°38'0 0.0
2015-Apr-20 04:31N 29°12' W 094°38'  
Track history (hours):
 
Tides and Currents Weather Stations Pressure Air Temp Water Temp Dewpoint Dewpoint Depression Visibility Wind Speed Wind Dir Waves Ship Positions

Valle Azzurra

Last reported at 2015-Apr-29 15:04 UTC. Time now 2015-Jul-04 19:05 UTC.
Position N 26°12' W 079°15'.
Warning: this ship's position is months out of date.

Length 183 m; draft 11.6 m.

Type: Tanker. MMSI: 247226600.

Date/timePositionNaut miles runAvg speedWind from/ knotsBaromVisibWave heightAir tempDewpointWater temp
2015-Apr-29 15:04N 26°12' W 079°15'713.9
2015-Apr-29 14:33N 26°07' W 079°20'1414.0
2015-Apr-29 13:33N 25°56' W 079°30'1414.1
2015-Apr-29 12:33N 25°42' W 079°33'  
2015-Apr-26 10:29N 28°48' W 094°26'3411.5
2015-Apr-26 07:34N 29°20' W 094°40'1211.3
2015-Apr-26 06:32N 29°26' W 094°50'1111.0
2015-Apr-26 05:33N 29°36' W 094°57'9 8.9
2015-Apr-26 04:33N 29°44' W 095°01'6 5.6
2015-Apr-26 03:33N 29°44' W 095°08'0 0.2
2015-Apr-26 02:33N 29°44' W 095°08'0 0.0
2015-Apr-26 01:33N 29°44' W 095°08'0 0.0
2015-Apr-26 00:33N 29°44' W 095°08'0 0.0
2015-Apr-25 23:33N 29°44' W 095°08'0 0.0
2015-Apr-25 22:33N 29°44' W 095°08'0 0.0
2015-Apr-25 21:33N 29°44' W 095°08'0 0.0
2015-Apr-25 20:33N 29°44' W 095°08'0 0.0
2015-Apr-25 19:33N 29°44' W 095°08'0 0.0
2015-Apr-25 18:33N 29°44' W 095°08'0 0.0
2015-Apr-25 17:33N 29°44' W 095°08'0 0.0
2015-Apr-25 16:33N 29°44' W 095°08'0 0.0
2015-Apr-25 15:33N 29°44' W 095°08'0 0.0
2015-Apr-25 14:33N 29°44' W 095°08'0 0.0
2015-Apr-25 13:33N 29°44' W 095°08'0 0.0
2015-Apr-25 12:30N 29°44' W 095°08'0 0.0
2015-Apr-25 11:33N 29°44' W 095°08'0 0.0
2015-Apr-25 10:33N 29°44' W 095°08'0 0.0
2015-Apr-25 09:33N 29°44' W 095°08'0 0.0
2015-Apr-25 08:33N 29°44' W 095°08'0 0.0
2015-Apr-25 07:33N 29°44' W 095°08'0 0.0
2015-Apr-25 06:33N 29°44' W 095°08'0 0.0
2015-Apr-25 05:30N 29°44' W 095°08'0 0.0
2015-Apr-25 04:33N 29°44' W 095°08'0 0.0
2015-Apr-25 03:33N 29°44' W 095°08'0 0.0
2015-Apr-25 02:33N 29°44' W 095°08'0 0.0
2015-Apr-25 01:33N 29°44' W 095°08'0 0.0
2015-Apr-25 00:33N 29°44' W 095°08'0 0.0
2015-Apr-24 23:33N 29°44' W 095°08'0 0.0
2015-Apr-24 22:33N 29°44' W 095°08'0 0.0
2015-Apr-24 21:33N 29°44' W 095°08'0 0.0
2015-Apr-24 20:30N 29°44' W 095°08'0 0.0
2015-Apr-24 19:33N 29°44' W 095°08'0 0.0
2015-Apr-24 18:33N 29°44' W 095°08'0 0.0
2015-Apr-24 17:33N 29°44' W 095°08'0 0.0
2015-Apr-24 16:33N 29°44' W 095°08'0 0.0
2015-Apr-24 15:33N 29°44' W 095°08'0 0.0
2015-Apr-24 14:33N 29°44' W 095°08'0 0.0
2015-Apr-24 13:30N 29°44' W 095°08'0 0.0
2015-Apr-24 12:27N 29°44' W 095°08'0 0.0
2015-Apr-24 11:33N 29°44' W 095°08'0 0.0
2015-Apr-24 10:33N 29°44' W 095°08'0 0.0
2015-Apr-24 09:30N 29°44' W 095°08'0 0.0
2015-Apr-24 08:30N 29°44' W 095°08'0 0.0
2015-Apr-24 07:33N 29°44' W 095°08'0 0.0
2015-Apr-24 06:33N 29°44' W 095°08'0 0.0
2015-Apr-24 05:33N 29°44' W 095°08'0 0.0
2015-Apr-24 04:33N 29°44' W 095°08'0 0.0
2015-Apr-24 03:30N 29°44' W 095°08'0 0.0
2015-Apr-24 02:33N 29°44' W 095°08'0 0.0
2015-Apr-24 01:33N 29°44' W 095°08'1 0.7
2015-Apr-24 00:33N 29°44' W 095°07'5 5.4
2015-Apr-23 23:33N 29°43' W 095°01'1010.1
2015-Apr-23 22:33N 29°34' W 094°55'1211.8
2015-Apr-23 21:33N 29°24' W 094°49'15 1.8
2015-Apr-23 13:31N 29°12' W 094°38'0 0.0
2015-Apr-23 12:25N 29°12' W 094°38'0 0.0
2015-Apr-23 11:31N 29°12' W 094°38'0 0.0
2015-Apr-23 10:28N 29°12' W 094°38'0 0.0
2015-Apr-22 14:25N 29°12' W 094°38'0 0.0
2015-Apr-22 13:22N 29°12' W 094°38'0 0.0
2015-Apr-22 12:31N 29°12' W 094°38'  
2015-Apr-20 08:13N 29°12' W 094°38'0 0.0
2015-Apr-20 07:25N 29°12' W 094°38'0 0.0
2015-Apr-20 06:14N 29°12' W 094°38'0 0.0
2015-Apr-20 05:28N 29°12' W 094°38'0 0.0
2015-Apr-20 04:31N 29°12' W 094°38'  

Dump ship's entire track history